sensor_id;sensor_type;location;lat;lon;timestamp;pressure;altitude;pressure_sealevel;temperature;humidity
49813;BME280;35706;52.100;5.056;2022-09-29T00:00:47;100037.66;;;10.40;78.07
49813;BME280;35706;52.100;5.056;2022-09-29T00:01:48;100033.00;;;10.34;78.38
49813;BME280;35706;52.100;5.056;2022-09-29T00:02:51;100031.91;;;10.18;79.12
49813;BME280;35706;52.100;5.056;2022-09-29T00:03:51;100035.50;;;10.35;78.58
49813;BME280;35706;52.100;5.056;2022-09-29T00:04:51;100039.00;;;10.26;78.70
49813;BME280;35706;52.100;5.056;2022-09-29T00:05:56;100035.31;;;10.37;78.48
49813;BME280;35706;52.100;5.056;2022-09-29T00:06:56;100028.22;;;10.55;77.43
49813;BME280;35706;52.100;5.056;2022-09-29T00:07:57;100030.97;;;10.54;77.83
49813;BME280;35706;52.100;5.056;2022-09-29T00:08:58;100032.41;;;10.40;78.06
49813;BME280;35706;52.100;5.056;2022-09-29T00:09:58;100034.81;;;10.33;78.24
49813;BME280;35706;52.100;5.056;2022-09-29T00:10:59;100037.97;;;10.19;79.02
49813;BME280;35706;52.100;5.056;2022-09-29T00:12:08;100034.97;;;10.32;78.43
49813;BME280;35706;52.100;5.056;2022-09-29T00:13:08;100033.88;;;10.43;77.99
49813;BME280;35706;52.100;5.056;2022-09-29T00:14:08;100037.84;;;10.47;78.28
49813;BME280;35706;52.100;5.056;2022-09-29T00:15:09;100036.25;;;10.54;77.42
49813;BME280;35706;52.100;5.056;2022-09-29T00:16:10;100026.19;;;10.49;77.73
49813;BME280;35706;52.100;5.056;2022-09-29T00:17:10;100028.00;;;10.49;77.69
49813;BME280;35706;52.100;5.056;2022-09-29T00:18:13;100026.69;;;10.45;77.95
49813;BME280;35706;52.100;5.056;2022-09-29T00:19:14;100029.69;;;10.50;77.96
49813;BME280;35706;52.100;5.056;2022-09-29T00:20:14;100032.03;;;10.61;77.24
49813;BME280;35706;52.100;5.056;2022-09-29T00:21:17;100028.53;;;10.52;77.66
49813;BME280;35706;52.100;5.056;2022-09-29T00:22:21;100026.38;;;10.48;77.90
49813;BME280;35706;52.100;5.056;2022-09-29T00:23:23;100018.78;;;10.45;78.03
49813;BME280;35706;52.100;5.056;2022-09-29T00:24:23;100022.97;;;10.55;77.19
49813;BME280;35706;52.100;5.056;2022-09-29T00:25:25;100023.47;;;10.59;77.18
49813;BME280;35706;52.100;5.056;2022-09-29T00:26:25;100024.28;;;10.59;77.22
49813;BME280;35706;52.100;5.056;2022-09-29T00:27:26;100026.19;;;10.49;77.71
49813;BME280;35706;52.100;5.056;2022-09-29T00:28:26;100031.41;;;10.41;78.30
49813;BME280;35706;52.100;5.056;2022-09-29T00:29:27;100026.75;;;10.35;78.16
49813;BME280;35706;52.100;5.056;2022-09-29T00:30:27;100023.03;;;10.37;78.01
49813;BME280;35706;52.100;5.056;2022-09-29T00:31:30;100027.63;;;10.17;79.09
49813;BME280;35706;52.100;5.056;2022-09-29T00:32:30;100022.88;;;10.21;79.11
49813;BME280;35706;52.100;5.056;2022-09-29T00:33:32;100030.28;;;10.44;77.97
49813;BME280;35706;52.100;5.056;2022-09-29T00:34:32;100022.28;;;10.27;78.51
49813;BME280;35706;52.100;5.056;2022-09-29T00:35:32;100016.97;;;10.45;77.91
49813;BME280;35706;52.100;5.056;2022-09-29T00:36:33;100027.75;;;10.34;78.59
49813;BME280;35706;52.100;5.056;2022-09-29T00:37:34;100028.75;;;10.33;78.44
49813;BME280;35706;52.100;5.056;2022-09-29T00:38:35;100028.56;;;10.34;78.48
49813;BME280;35706;52.100;5.056;2022-09-29T00:39:35;100031.53;;;10.31;78.83
49813;BME280;35706;52.100;5.056;2022-09-29T00:40:35;100031.09;;;10.44;78.06
49813;BME280;35706;52.100;5.056;2022-09-29T00:41:37;100027.44;;;10.37;78.54
49813;BME280;35706;52.100;5.056;2022-09-29T00:42:38;100027.50;;;10.45;78.16
49813;BME280;35706;52.100;5.056;2022-09-29T00:45:23;100034.31;;;9.94;80.56
49813;BME280;35706;52.100;5.056;2022-09-29T00:47:31;100031.25;;;9.98;80.34
49813;BME280;35706;52.100;5.056;2022-09-29T00:48:35;100031.56;;;9.95;80.66
49813;BME280;35706;52.100;5.056;2022-09-29T00:49:41;100035.03;;;10.22;79.04
49813;BME280;35706;52.100;5.056;2022-09-29T00:50:47;100029.09;;;10.20;79.02
49813;BME280;35706;52.100;5.056;2022-09-29T00:51:58;100038.59;;;10.13;79.78
49813;BME280;35706;52.100;5.056;2022-09-29T00:53:01;100041.78;;;10.25;79.12
49813;BME280;35706;52.100;5.056;2022-09-29T00:54:03;100032.34;;;10.32;78.83
49813;BME280;35706;52.100;5.056;2022-09-29T00:55:09;100034.75;;;10.07;79.86
49813;BME280;35706;52.100;5.056;2022-09-29T00:56:14;100033.88;;;9.98;80.23
49813;BME280;35706;52.100;5.056;2022-09-29T00:57:18;100041.63;;;9.64;81.59
49813;BME280;35706;52.100;5.056;2022-09-29T00:59:53;100040.09;;;9.97;80.53
49813;BME280;35706;52.100;5.056;2022-09-29T01:00:56;100045.03;;;10.01;80.35
49813;BME280;35706;52.100;5.056;2022-09-29T01:01:58;100036.81;;;9.95;80.44
49813;BME280;35706;52.100;5.056;2022-09-29T01:03:01;100037.38;;;10.07;80.13
49813;BME280;35706;52.100;5.056;2022-09-29T01:04:08;100033.13;;;10.06;80.19
49813;BME280;35706;52.100;5.056;2022-09-29T01:05:13;100028.56;;;9.90;80.56
49813;BME280;35706;52.100;5.056;2022-09-29T01:06:19;100033.19;;;9.96;80.39
49813;BME280;35706;52.100;5.056;2022-09-29T01:07:22;100031.31;;;10.07;80.09
49813;BME280;35706;52.100;5.056;2022-09-29T01:08:36;100030.09;;;10.01;80.23
49813;BME280;35706;52.100;5.056;2022-09-29T01:09:39;100030.97;;;10.02;80.07
49813;BME280;35706;52.100;5.056;2022-09-29T01:10:42;100032.38;;;10.14;79.40
49813;BME280;35706;52.100;5.056;2022-09-29T01:11:43;100033.19;;;10.14;79.54
49813;BME280;35706;52.100;5.056;2022-09-29T01:12:45;100028.13;;;10.21;78.99
49813;BME280;35706;52.100;5.056;2022-09-29T01:13:46;100031.53;;;10.13;79.41
49813;BME280;35706;52.100;5.056;2022-09-29T01:14:51;100034.31;;;10.30;78.47
49813;BME280;35706;52.100;5.056;2022-09-29T01:15:52;100033.47;;;10.29;78.87
49813;BME280;35706;52.100;5.056;2022-09-29T01:16:52;100037.66;;;10.22;79.03
49813;BME280;35706;52.100;5.056;2022-09-29T01:17:53;100031.97;;;10.09;79.43
49813;BME280;35706;52.100;5.056;2022-09-29T01:18:53;100035.59;;;10.08;79.52
49813;BME280;35706;52.100;5.056;2022-09-29T01:22:17;100030.34;;;9.90;80.63
49813;BME280;35706;52.100;5.056;2022-09-29T01:23:48;100035.06;;;10.04;79.67
49813;BME280;35706;52.100;5.056;2022-09-29T01:29:28;100029.19;;;9.84;80.90
49813;BME280;35706;52.100;5.056;2022-09-29T01:31:58;100033.97;;;9.89;80.53
49813;BME280;35706;52.100;5.056;2022-09-29T01:36:05;100034.78;;;9.71;81.50
49813;BME280;35706;52.100;5.056;2022-09-29T01:37:18;100035.47;;;9.73;81.89
49813;BME280;35706;52.100;5.056;2022-09-29T01:38:41;100035.31;;;9.75;81.37
49813;BME280;35706;52.100;5.056;2022-09-29T01:39:53;100037.41;;;9.71;81.73
49813;BME280;35706;52.100;5.056;2022-09-29T01:41:08;100043.03;;;9.76;81.61
49813;BME280;35706;52.100;5.056;2022-09-29T01:42:21;100041.16;;;9.87;81.09
49813;BME280;35706;52.100;5.056;2022-09-29T01:43:32;100036.13;;;9.75;81.37
49813;BME280;35706;52.100;5.056;2022-09-29T01:44:53;100036.97;;;9.76;81.52
49813;BME280;35706;52.100;5.056;2022-09-29T01:47:07;100036.97;;;9.76;81.40
49813;BME280;35706;52.100;5.056;2022-09-29T01:48:12;100039.06;;;9.72;81.78
49813;BME280;35706;52.100;5.056;2022-09-29T01:49:18;100040.34;;;9.68;81.89
49813;BME280;35706;52.100;5.056;2022-09-29T01:50:23;100039.00;;;9.64;82.13
49813;BME280;35706;52.100;5.056;2022-09-29T01:52:56;100030.28;;;9.82;81.48
49813;BME280;35706;52.100;5.056;2022-09-29T01:54:02;100030.47;;;9.80;81.53
49813;BME280;35706;52.100;5.056;2022-09-29T01:55:07;100038.34;;;9.80;81.37
49813;BME280;35706;52.100;5.056;2022-09-29T01:56:13;100042.53;;;9.91;80.99
49813;BME280;35706;52.100;5.056;2022-09-29T01:57:26;100041.84;;;9.89;81.34
49813;BME280;35706;52.100;5.056;2022-09-29T01:58:42;100044.38;;;9.63;82.15
49813;BME280;35706;52.100;5.056;2022-09-29T01:59:54;100039.88;;;9.73;81.62
49813;BME280;35706;52.100;5.056;2022-09-29T02:00:59;100038.47;;;9.61;81.45
49813;BME280;35706;52.100;5.056;2022-09-29T02:02:06;100040.44;;;9.76;81.35
49813;BME280;35706;52.100;5.056;2022-09-29T02:03:19;100033.97;;;9.71;81.31
49813;BME280;35706;52.100;5.056;2022-09-29T02:04:26;100030.97;;;9.66;81.96
49813;BME280;35706;52.100;5.056;2022-09-29T02:05:32;100035.78;;;9.70;81.36
49813;BME280;35706;52.100;5.056;2022-09-29T02:06:44;100042.59;;;9.63;81.61
49813;BME280;35706;52.100;5.056;2022-09-29T02:07:48;100040.25;;;9.60;81.98
49813;BME280;35706;52.100;5.056;2022-09-29T02:08:56;100039.31;;;9.61;81.75
49813;BME280;35706;52.100;5.056;2022-09-29T02:10:04;100039.66;;;9.66;81.73
49813;BME280;35706;52.100;5.056;2022-09-29T02:11:11;100038.63;;;9.59;81.59
49813;BME280;35706;52.100;5.056;2022-09-29T02:12:17;100046.91;;;9.54;82.17
49813;BME280;35706;52.100;5.056;2022-09-29T02:13:20;100037.28;;;9.55;82.07
49813;BME280;35706;52.100;5.056;2022-09-29T02:14:25;100041.97;;;9.69;81.66
49813;BME280;35706;52.100;5.056;2022-09-29T02:15:31;100035.31;;;9.75;81.20
49813;BME280;35706;52.100;5.056;2022-09-29T02:16:40;100036.28;;;9.92;79.89
49813;BME280;35706;52.100;5.056;2022-09-29T02:17:44;100034.19;;;9.95;79.46
49813;BME280;35706;52.100;5.056;2022-09-29T02:18:51;100032.09;;;9.81;80.38
49813;BME280;35706;52.100;5.056;2022-09-29T02:19:52;100039.22;;;9.71;81.04
49813;BME280;35706;52.100;5.056;2022-09-29T02:20:53;100038.41;;;9.70;81.19
49813;BME280;35706;52.100;5.056;2022-09-29T02:21:54;100030.97;;;9.84;80.47
49813;BME280;35706;52.100;5.056;2022-09-29T02:22:54;100040.63;;;9.83;80.23
49813;BME280;35706;52.100;5.056;2022-09-29T02:23:55;100043.03;;;9.76;80.86
49813;BME280;35706;52.100;5.056;2022-09-29T02:24:57;100037.28;;;9.55;81.70
49813;BME280;35706;52.100;5.056;2022-09-29T02:25:58;100038.31;;;9.44;82.06
49813;BME280;35706;52.100;5.056;2022-09-29T02:26:59;100036.13;;;9.40;82.64
49813;BME280;35706;52.100;5.056;2022-09-29T02:28:01;100038.91;;;9.56;81.83
49813;BME280;35706;52.100;5.056;2022-09-29T02:29:03;100036.28;;;9.56;81.85
49813;BME280;35706;52.100;5.056;2022-09-29T02:30:04;100037.81;;;9.76;80.38
49813;BME280;35706;52.100;5.056;2022-09-29T02:31:05;100037.28;;;9.55;81.55
49813;BME280;35706;52.100;5.056;2022-09-29T02:32:07;100041.25;;;9.59;81.67
49813;BME280;35706;52.100;5.056;2022-09-29T02:33:23;100041.16;;;9.69;81.58
49813;BME280;35706;52.100;5.056;2022-09-29T02:34:23;100041.47;;;9.66;81.77
49813;BME280;35706;52.100;5.056;2022-09-29T02:35:28;100032.69;;;9.75;81.00
49813;BME280;35706;52.100;5.056;2022-09-29T02:36:48;100037.81;;;9.76;80.91
49813;BME280;35706;52.100;5.056;2022-09-29T02:38:03;100037.94;;;9.75;81.00
49813;BME280;35706;52.100;5.056;2022-09-29T02:40:25;100032.44;;;9.86;80.55
49813;BME280;35706;52.100;5.056;2022-09-29T02:41:44;100034.66;;;9.91;80.15
49813;BME280;35706;52.100;5.056;2022-09-29T02:47:27;100033.81;;;9.72;80.79
49813;BME280;35706;52.100;5.056;2022-09-29T02:48:42;100033.38;;;9.77;80.83
49813;BME280;35706;52.100;5.056;2022-09-29T02:51:39;100032.22;;;9.97;79.39
49813;BME280;35706;52.100;5.056;2022-09-29T02:52:45;100030.81;;;9.85;79.51
49813;BME280;35706;52.100;5.056;2022-09-29T02:56:37;100030.88;;;9.75;80.04
49813;BME280;35706;52.100;5.056;2022-09-29T02:57:53;100040.09;;;9.97;78.84
49813;BME280;35706;52.100;5.056;2022-09-29T02:59:12;100038.22;;;9.90;79.34
49813;BME280;35706;52.100;5.056;2022-09-29T03:00:16;100041.69;;;9.72;80.45
49813;BME280;35706;52.100;5.056;2022-09-29T03:01:19;100028.03;;;9.69;80.52
49813;BME280;35706;52.100;5.056;2022-09-29T03:02:24;100035.84;;;9.78;79.45
49813;BME280;35706;52.100;5.056;2022-09-29T03:03:24;100036.72;;;9.69;80.87
49813;BME280;35706;52.100;5.056;2022-09-29T03:04:26;100034.41;;;9.66;80.80
49813;BME280;35706;52.100;5.056;2022-09-29T03:05:26;100036.00;;;9.59;80.85
49813;BME280;35706;52.100;5.056;2022-09-29T03:06:27;100038.22;;;9.54;81.30
49813;BME280;35706;52.100;5.056;2022-09-29T03:07:27;100046.88;;;9.64;81.18
49813;BME280;35706;52.100;5.056;2022-09-29T03:08:27;100040.13;;;9.62;81.14
49813;BME280;35706;52.100;5.056;2022-09-29T03:09:27;100036.44;;;9.54;81.50
49813;BME280;35706;52.100;5.056;2022-09-29T03:10:28;100036.50;;;9.63;81.33
49813;BME280;35706;52.100;5.056;2022-09-29T03:11:28;100034.06;;;9.61;81.36
49813;BME280;35706;52.100;5.056;2022-09-29T03:12:28;100040.25;;;9.60;81.38
49813;BME280;35706;52.100;5.056;2022-09-29T03:13:29;100039.06;;;9.54;81.57
49813;BME280;35706;52.100;5.056;2022-09-29T03:14:29;100036.06;;;9.49;82.02
49813;BME280;35706;52.100;5.056;2022-09-29T03:15:29;100040.84;;;9.54;81.87
49813;BME280;35706;52.100;5.056;2022-09-29T03:16:30;100037.63;;;9.60;81.32
49813;BME280;35706;52.100;5.056;2022-09-29T03:17:30;100033.81;;;9.54;81.61
49813;BME280;35706;52.100;5.056;2022-09-29T03:18:30;100040.94;;;9.62;81.33
49813;BME280;35706;52.100;5.056;2022-09-29T03:19:30;100038.53;;;9.51;81.91
49813;BME280;35706;52.100;5.056;2022-09-29T03:20:31;100038.38;;;9.52;81.75
49813;BME280;35706;52.100;5.056;2022-09-29T03:21:31;100045.16;;;9.55;81.58
49813;BME280;35706;52.100;5.056;2022-09-29T03:22:31;100043.47;;;9.54;81.24
49813;BME280;35706;52.100;5.056;2022-09-29T03:23:32;100043.34;;;9.55;81.01
49813;BME280;35706;52.100;5.056;2022-09-29T03:24:32;100048.28;;;9.41;81.50
49813;BME280;35706;52.100;5.056;2022-09-29T03:25:32;100047.72;;;9.37;81.64
49813;BME280;35706;52.100;5.056;2022-09-29T03:26:32;100038.69;;;9.31;81.66
49813;BME280;35706;52.100;5.056;2022-09-29T03:27:33;100049.22;;;9.40;81.37
49813;BME280;35706;52.100;5.056;2022-09-29T03:28:35;100044.66;;;9.42;81.64
49813;BME280;35706;52.100;5.056;2022-09-29T03:29:36;100044.06;;;9.48;81.11
49813;BME280;35706;52.100;5.056;2022-09-29T03:30:37;100043.97;;;9.40;81.09
49813;BME280;35706;52.100;5.056;2022-09-29T03:31:40;100047.38;;;9.32;81.41
49813;BME280;35706;52.100;5.056;2022-09-29T03:32:42;100042.50;;;9.37;81.28
49813;BME280;35706;52.100;5.056;2022-09-29T03:33:42;100044.97;;;9.38;80.56
49813;BME280;35706;52.100;5.056;2022-09-29T03:34:42;100048.56;;;9.37;80.77
49813;BME280;35706;52.100;5.056;2022-09-29T03:35:43;100047.16;;;9.43;80.28
49813;BME280;35706;52.100;5.056;2022-09-29T03:36:43;100035.59;;;9.36;80.96
49813;BME280;35706;52.100;5.056;2022-09-29T03:37:43;100040.00;;;9.35;80.84
49813;BME280;35706;52.100;5.056;2022-09-29T03:38:43;100046.09;;;9.36;81.28
49813;BME280;35706;52.100;5.056;2022-09-29T03:39:46;100040.78;;;9.46;80.36
49813;BME280;35706;52.100;5.056;2022-09-29T03:40:46;100043.56;;;9.44;80.21
49813;BME280;35706;52.100;5.056;2022-09-29T03:41:46;100039.91;;;9.55;79.85
49813;BME280;35706;52.100;5.056;2022-09-29T03:42:47;100043.88;;;9.59;79.44
49813;BME280;35706;52.100;5.056;2022-09-29T03:43:47;100049.41;;;9.56;79.76
49813;BME280;35706;52.100;5.056;2022-09-29T03:44:47;100047.09;;;9.53;80.12
49813;BME280;35706;52.100;5.056;2022-09-29T03:45:52;100045.78;;;9.39;80.71
49813;BME280;35706;52.100;5.056;2022-09-29T03:46:53;100048.22;;;9.23;81.14
49813;BME280;35706;52.100;5.056;2022-09-29T03:47:53;100050.50;;;9.35;80.70
49813;BME280;35706;52.100;5.056;2022-09-29T03:48:54;100055.13;;;9.24;80.98
49813;BME280;35706;52.100;5.056;2022-09-29T03:49:54;100057.66;;;9.15;81.25
49813;BME280;35706;52.100;5.056;2022-09-29T03:50:54;100058.91;;;8.84;82.61
49813;BME280;35706;52.100;5.056;2022-09-29T03:51:54;100054.84;;;8.99;82.64
49813;BME280;35706;52.100;5.056;2022-09-29T03:52:55;100056.53;;;9.18;81.68
49813;BME280;35706;52.100;5.056;2022-09-29T03:53:55;100053.09;;;9.17;81.90
49813;BME280;35706;52.100;5.056;2022-09-29T03:54:55;100057.84;;;9.32;81.03
49813;BME280;35706;52.100;5.056;2022-09-29T03:55:55;100053.72;;;9.29;81.03
49813;BME280;35706;52.100;5.056;2022-09-29T03:56:56;100054.00;;;9.26;81.20
49813;BME280;35706;52.100;5.056;2022-09-29T03:57:56;100063.88;;;9.14;81.96
49813;BME280;35706;52.100;5.056;2022-09-29T03:58:56;100057.03;;;9.31;81.19
49813;BME280;35706;52.100;5.056;2022-09-29T03:59:57;100055.13;;;9.24;81.23
49813;BME280;35706;52.100;5.056;2022-09-29T04:00:57;100061.09;;;9.16;81.79
49813;BME280;35706;52.100;5.056;2022-09-29T04:01:57;100059.38;;;9.07;81.86
49813;BME280;35706;52.100;5.056;2022-09-29T04:02:58;100052.41;;;9.15;81.73
49813;BME280;35706;52.100;5.056;2022-09-29T04:03:58;100062.66;;;9.09;81.92
49813;BME280;35706;52.100;5.056;2022-09-29T04:04:59;100064.75;;;9.05;81.98
49813;BME280;35706;52.100;5.056;2022-09-29T04:05:59;100061.09;;;9.16;81.85
49813;BME280;35706;52.100;5.056;2022-09-29T04:06:59;100063.34;;;9.11;82.01
49813;BME280;35706;52.100;5.056;2022-09-29T04:08:00;100064.75;;;9.05;81.92
49813;BME280;35706;52.100;5.056;2022-09-29T04:09:00;100061.59;;;9.02;82.43
49813;BME280;35706;52.100;5.056;2022-09-29T04:10:01;100065.88;;;9.03;82.34
49813;BME280;35706;52.100;5.056;2022-09-29T04:11:01;100071.41;;;9.00;82.34
49813;BME280;35706;52.100;5.056;2022-09-29T04:12:02;100068.34;;;9.04;82.57
49813;BME280;35706;52.100;5.056;2022-09-29T04:13:03;100070.53;;;9.09;82.29
49813;BME280;35706;52.100;5.056;2022-09-29T04:14:04;100065.53;;;9.15;81.56
49813;BME280;35706;52.100;5.056;2022-09-29T04:15:05;100060.66;;;9.21;81.37
49813;BME280;35706;52.100;5.056;2022-09-29T04:16:06;100073.03;;;9.10;81.91
49813;BME280;35706;52.100;5.056;2022-09-29T04:17:06;100075.47;;;9.12;81.76
49813;BME280;35706;52.100;5.056;2022-09-29T04:18:09;100075.88;;;9.17;81.55
49813;BME280;35706;52.100;5.056;2022-09-29T04:19:10;100074.53;;;9.13;81.41
49813;BME280;35706;52.100;5.056;2022-09-29T04:20:10;100075.47;;;9.12;81.60
49813;BME280;35706;52.100;5.056;2022-09-29T04:21:10;100070.22;;;9.12;81.75
49813;BME280;35706;52.100;5.056;2022-09-29T04:22:10;100073.94;;;9.19;81.46
49813;BME280;35706;52.100;5.056;2022-09-29T04:23:12;100077.13;;;9.13;81.20
49813;BME280;35706;52.100;5.056;2022-09-29T04:24:14;100072.75;;;9.04;82.13
49813;BME280;35706;52.100;5.056;2022-09-29T04:25:15;100071.13;;;9.03;81.96
49813;BME280;35706;52.100;5.056;2022-09-29T04:26:16;100075.38;;;9.04;81.79
49813;BME280;35706;52.100;5.056;2022-09-29T04:27:17;100071.94;;;9.03;81.55
49813;BME280;35706;52.100;5.056;2022-09-29T04:28:17;100077.16;;;9.03;81.76
49813;BME280;35706;52.100;5.056;2022-09-29T04:29:21;100078.53;;;9.07;81.68
49813;BME280;35706;52.100;5.056;2022-09-29T04:30:21;100078.00;;;9.04;81.52
49813;BME280;35706;52.100;5.056;2022-09-29T04:31:21;100081.50;;;8.94;81.76
49813;BME280;35706;52.100;5.056;2022-09-29T04:32:22;100075.00;;;8.99;82.05
49813;BME280;35706;52.100;5.056;2022-09-29T04:33:23;100077.50;;;8.90;82.12
49813;BME280;35706;52.100;5.056;2022-09-29T04:34:24;100077.25;;;8.84;82.60
49813;BME280;35706;52.100;5.056;2022-09-29T04:35:24;100080.81;;;8.92;81.94
49813;BME280;35706;52.100;5.056;2022-09-29T04:36:24;100082.59;;;9.02;81.87
49813;BME280;35706;52.100;5.056;2022-09-29T04:37:25;100080.19;;;9.08;81.91
49813;BME280;35706;52.100;5.056;2022-09-29T04:38:25;100084.22;;;9.03;81.76
49813;BME280;35706;52.100;5.056;2022-09-29T04:39:26;100077.28;;;9.11;81.48
49813;BME280;35706;52.100;5.056;2022-09-29T04:40:26;100077.84;;;9.05;81.60
49813;BME280;35706;52.100;5.056;2022-09-29T04:41:26;100080.38;;;8.97;81.79
49813;BME280;35706;52.100;5.056;2022-09-29T04:42:28;100085.09;;;8.93;82.22
49813;BME280;35706;52.100;5.056;2022-09-29T04:43:28;100081.47;;;9.04;81.87
49813;BME280;35706;52.100;5.056;2022-09-29T04:44:28;100082.72;;;9.00;81.85
49813;BME280;35706;52.100;5.056;2022-09-29T04:45:29;100080.56;;;8.86;81.93
49813;BME280;35706;52.100;5.056;2022-09-29T04:46:29;100080.31;;;8.79;82.35
49813;BME280;35706;52.100;5.056;2022-09-29T04:47:30;100089.81;;;8.80;82.50
49813;BME280;35706;52.100;5.056;2022-09-29T04:48:31;100093.69;;;8.76;82.30
49813;BME280;35706;52.100;5.056;2022-09-29T04:49:31;100085.25;;;8.82;82.36
49813;BME280;35706;52.100;5.056;2022-09-29T04:50:32;100081.25;;;8.78;82.61
49813;BME280;35706;52.100;5.056;2022-09-29T04:51:32;100083.63;;;8.81;82.77
49813;BME280;35706;52.100;5.056;2022-09-29T04:52:33;100092.41;;;8.90;81.92
49813;BME280;35706;52.100;5.056;2022-09-29T04:53:33;100100.59;;;8.77;81.91
49813;BME280;35706;52.100;5.056;2022-09-29T04:54:34;100094.09;;;8.81;82.14
49813;BME280;35706;52.100;5.056;2022-09-29T04:55:36;100094.09;;;8.81;81.74
49813;BME280;35706;52.100;5.056;2022-09-29T04:56:37;100091.03;;;8.86;81.96
49813;BME280;35706;52.100;5.056;2022-09-29T04:57:38;100098.47;;;8.90;81.72
49813;BME280;35706;52.100;5.056;2022-09-29T04:58:38;100095.84;;;8.90;81.94
49813;BME280;35706;52.100;5.056;2022-09-29T04:59:39;100099.44;;;8.89;81.11
49813;BME280;35706;52.100;5.056;2022-09-29T05:00:39;100099.59;;;8.88;81.50
49813;BME280;35706;52.100;5.056;2022-09-29T05:01:39;100095.47;;;8.85;81.60
49813;BME280;35706;52.100;5.056;2022-09-29T05:02:40;100095.97;;;8.89;81.68
49813;BME280;35706;52.100;5.056;2022-09-29T05:03:40;100094.47;;;8.86;81.79
49813;BME280;35706;52.100;5.056;2022-09-29T05:04:41;100094.66;;;8.85;81.53
49813;BME280;35706;52.100;5.056;2022-09-29T05:05:41;100096.41;;;8.84;81.74
49813;BME280;35706;52.100;5.056;2022-09-29T05:06:41;100099.69;;;8.96;81.18
49813;BME280;35706;52.100;5.056;2022-09-29T05:07:41;100099.84;;;8.94;80.95
49813;BME280;35706;52.100;5.056;2022-09-29T05:08:43;100104.81;;;8.88;81.70
49813;BME280;35706;52.100;5.056;2022-09-29T05:09:43;100102.22;;;8.88;81.66
49813;BME280;35706;52.100;5.056;2022-09-29T05:10:44;100107.44;;;8.88;81.44
49813;BME280;35706;52.100;5.056;2022-09-29T05:11:46;100102.06;;;8.89;81.60
49813;BME280;35706;52.100;5.056;2022-09-29T05:12:48;100107.00;;;9.02;81.08
49813;BME280;35706;52.100;5.056;2022-09-29T05:13:49;100112.75;;;9.06;80.95
49813;BME280;35706;52.100;5.056;2022-09-29T05:14:52;100110.28;;;9.04;80.44
49813;BME280;35706;52.100;5.056;2022-09-29T05:15:56;100108.78;;;9.02;80.52
49813;BME280;35706;52.100;5.056;2022-09-29T05:16:57;100110.13;;;9.06;80.46
49813;BME280;35706;52.100;5.056;2022-09-29T05:18:00;100108.06;;;9.09;80.03
49813;BME280;35706;52.100;5.056;2022-09-29T05:19:01;100112.94;;;8.94;80.92
49813;BME280;35706;52.100;5.056;2022-09-29T05:20:02;100113.25;;;8.82;81.37
49813;BME280;35706;52.100;5.056;2022-09-29T05:21:06;100110.66;;;8.72;81.81
49813;BME280;35706;52.100;5.056;2022-09-29T05:22:07;100113.13;;;8.73;81.68
49813;BME280;35706;52.100;5.056;2022-09-29T05:23:07;100116.69;;;8.82;81.52
49813;BME280;35706;52.100;5.056;2022-09-29T05:24:09;100113.06;;;8.93;81.04
49813;BME280;35706;52.100;5.056;2022-09-29T05:25:09;100122.50;;;8.76;81.43
49813;BME280;35706;52.100;5.056;2022-09-29T05:26:10;100117.38;;;8.84;81.52
49813;BME280;35706;52.100;5.056;2022-09-29T05:27:11;100123.06;;;8.80;81.36
49813;BME280;35706;52.100;5.056;2022-09-29T05:28:11;100119.56;;;8.99;79.69
49813;BME280;35706;52.100;5.056;2022-09-29T05:29:14;100127.75;;;8.76;80.78
49813;BME280;35706;52.100;5.056;2022-09-29T05:30:14;100117.75;;;8.62;81.29
49813;BME280;35706;52.100;5.056;2022-09-29T05:31:14;100113.88;;;8.56;81.41
49813;BME280;35706;52.100;5.056;2022-09-29T05:32:15;100115.25;;;8.50;81.72
49813;BME280;35706;52.100;5.056;2022-09-29T05:33:15;100122.84;;;8.53;81.72
49813;BME280;35706;52.100;5.056;2022-09-29T05:34:16;100125.56;;;8.71;80.74
49813;BME280;35706;52.100;5.056;2022-09-29T05:35:16;100124.66;;;8.43;82.02
49813;BME280;35706;52.100;5.056;2022-09-29T05:36:16;100126.72;;;8.49;81.66
49813;BME280;35706;52.100;5.056;2022-09-29T05:37:17;100130.81;;;8.23;82.66
49813;BME280;35706;52.100;5.056;2022-09-29T05:38:17;100137.56;;;8.35;82.72
49813;BME280;35706;52.100;5.056;2022-09-29T05:39:17;100132.09;;;8.48;82.04
49813;BME280;35706;52.100;5.056;2022-09-29T05:40:19;100127.94;;;8.55;81.76
49813;BME280;35706;52.100;5.056;2022-09-29T05:41:23;100131.66;;;8.62;81.68
49813;BME280;35706;52.100;5.056;2022-09-29T05:42:23;100135.66;;;8.66;81.68
49813;BME280;35706;52.100;5.056;2022-09-29T05:43:24;100128.91;;;8.54;81.78
49813;BME280;35706;52.100;5.056;2022-09-29T05:44:25;100133.59;;;8.50;81.99
49813;BME280;35706;52.100;5.056;2022-09-29T05:45:25;100132.91;;;8.48;82.25
49813;BME280;35706;52.100;5.056;2022-09-29T05:46:26;100138.00;;;8.60;82.00
49813;BME280;35706;52.100;5.056;2022-09-29T05:47:26;100136.91;;;8.52;82.01
49813;BME280;35706;52.100;5.056;2022-09-29T05:48:27;100136.47;;;8.57;82.00
49813;BME280;35706;52.100;5.056;2022-09-29T05:49:31;100130.72;;;8.53;81.67
49813;BME280;35706;52.100;5.056;2022-09-29T05:50:32;100136.06;;;8.52;82.00
49813;BME280;35706;52.100;5.056;2022-09-29T05:51:32;100133.84;;;8.57;81.81
49813;BME280;35706;52.100;5.056;2022-09-29T05:52:32;100138.56;;;8.53;81.92
49813;BME280;35706;52.100;5.056;2022-09-29T05:53:33;100133.47;;;8.52;81.79
49813;BME280;35706;52.100;5.056;2022-09-29T05:54:33;100136.06;;;8.52;82.00
49813;BME280;35706;52.100;5.056;2022-09-29T05:55:36;100134.41;;;8.61;81.92
49813;BME280;35706;52.100;5.056;2022-09-29T05:56:37;100133.28;;;8.63;81.64
49813;BME280;35706;52.100;5.056;2022-09-29T05:57:37;100134.69;;;8.58;81.70
49813;BME280;35706;52.100;5.056;2022-09-29T05:58:41;100140.88;;;8.66;81.61
49813;BME280;35706;52.100;5.056;2022-09-29T05:59:41;100134.66;;;8.77;81.31